Hauptseite
METAR-TAF:

METAR-TAF

Flughäfen :

Pjöngjang, Nordkorea

Flughafen Sunan

Breite: 39-02N, Länge: 125-47E, Höhe: 36 m

METAR: fehlend

Zeit: 00:18 (15:48 UTC)

Prognose

Neuester Wetterbericht von vor 11 Stunden und 48 Minuten, um 04:00 UTC
Gültige Prognose vom 27 um 06 UTC bis 28 um 06 UTC
Wind 8 kt aus Nordwest
Sichtweite 10 km oder mehr
Durchbrochene Bewölkung in der Höhe von 2000 ft
Übergehend zu
vom 27 um 10 UTC bis 27 um 12 UTC
Sichtweite: 6000 m
Übergehend zu
vom 28 um 00 UTC bis 28 um 02 UTC
Wind 8 kt aus Süd

TAF: ZKPY 270400Z 2706/2806 32004MPS 9999 BKN020 BECMG 2710/2712 6000 NSC BECMG 2800/2802 18004MPS

Wetterbeobachtungen und Prognosen von mehr als 4000 Flughäfen (METAR und TAF Bericht).

Die verfügbaren Stationen werden durch gelbe und rote Markierungen auf der Karte dargestellt.

Führen Sie die Maus auf sie, um den Namen der Station zu sehen.

Darauf klicken, um die Beobachtung von Wetterbeobachtungen und Prognosen zu sehen.

Um die Karte zu ändern : klicken Sie auf den grünen Tasten mit einem schwarzen Kreuz Zum Vergrößern, auf den grünen Button mit einem Gedankenstrich zu verkleinern, oder auf die grünen Pfeile für benachbarte Karten.


METAR-TAF: